sensor_id;sensor_type;location;lat;lon;timestamp;pressure;altitude;pressure_sealevel;temperature;humidity
69535;BME280;56754;51.568;5.048;2022-10-31T00:01:33;102029.03;;;17.04;73.71
69535;BME280;56754;51.568;5.048;2022-10-31T00:03:59;102029.03;;;17.04;73.54
69535;BME280;56754;51.568;5.048;2022-10-31T00:06:25;102030.94;;;17.04;73.65
69535;BME280;56754;51.568;5.048;2022-10-31T00:08:55;102039.03;;;17.04;73.62
69535;BME280;56754;51.568;5.048;2022-10-31T00:11:20;102036.66;;;17.02;73.63
69535;BME280;56754;51.568;5.048;2022-10-31T00:13:46;102042.84;;;17.03;73.56
69535;BME280;56754;51.568;5.048;2022-10-31T00:16:18;102043.97;;;17.02;73.55
69535;BME280;56754;51.568;5.048;2022-10-31T00:18:48;102042.06;;;17.02;73.67
69535;BME280;56754;51.568;5.048;2022-10-31T00:21:14;102041.56;;;17.00;73.48
69535;BME280;56754;51.568;5.048;2022-10-31T00:23:39;102049.69;;;17.00;73.63
69535;BME280;56754;51.568;5.048;2022-10-31T00:26:04;102043.50;;;17.00;73.38
69535;BME280;56754;51.568;5.048;2022-10-31T00:28:30;102046.97;;;17.00;73.47
69535;BME280;56754;51.568;5.048;2022-10-31T00:31:04;102054.28;;;17.00;73.49
69535;BME280;56754;51.568;5.048;2022-10-31T00:33:30;102050.81;;;16.99;73.52
69535;BME280;56754;51.568;5.048;2022-10-31T00:35:57;102053.50;;;16.99;73.26
69535;BME280;56754;51.568;5.048;2022-10-31T00:38:23;102053.50;;;16.99;73.56
69535;BME280;56754;51.568;5.048;2022-10-31T00:40:48;102048.09;;;16.99;73.55
69535;BME280;56754;51.568;5.048;2022-10-31T00:43:13;102034.59;;;16.99;73.59
69535;BME280;56754;51.568;5.048;2022-10-31T00:45:39;102034.13;;;16.97;73.56
69535;BME280;56754;51.568;5.048;2022-10-31T00:48:04;102029.53;;;16.98;73.69
69535;BME280;56754;51.568;5.048;2022-10-31T00:50:30;102024.13;;;16.98;73.48
69535;BME280;56754;51.568;5.048;2022-10-31T00:52:55;102020.16;;;16.95;73.62
69535;BME280;56754;51.568;5.048;2022-10-31T00:55:20;102025.56;;;16.95;73.78
69535;BME280;56754;51.568;5.048;2022-10-31T00:57:46;102017.47;;;16.95;73.60
69535;BME280;56754;51.568;5.048;2022-10-31T01:00:12;102012.06;;;16.95;73.82
69535;BME280;56754;51.568;5.048;2022-10-31T01:02:37;102006.66;;;16.95;73.87
69535;BME280;56754;51.568;5.048;2022-10-31T01:05:02;102012.38;;;16.94;73.95
69535;BME280;56754;51.568;5.048;2022-10-31T01:07:28;102012.38;;;16.94;73.89
69535;BME280;56754;51.568;5.048;2022-10-31T01:09:53;102012.72;;;16.92;73.96
69535;BME280;56754;51.568;5.048;2022-10-31T01:12:18;102007.31;;;16.92;73.86
69535;BME280;56754;51.568;5.048;2022-10-31T01:14:44;102005.72;;;16.91;73.67
69535;BME280;56754;51.568;5.048;2022-10-31T01:17:11;102017.63;;;16.90;73.99
69535;BME280;56754;51.568;5.048;2022-10-31T01:19:36;102018.44;;;16.91;73.76
69535;BME280;56754;51.568;5.048;2022-10-31T01:22:01;102022.25;;;16.90;74.05
69535;BME280;56754;51.568;5.048;2022-10-31T01:24:27;102019.56;;;16.90;73.92
69535;BME280;56754;51.568;5.048;2022-10-31T01:26:52;102019.84;;;16.88;73.86
69535;BME280;56754;51.568;5.048;2022-10-31T01:29:17;102016.72;;;16.86;73.90
69535;BME280;56754;51.568;5.048;2022-10-31T01:31:42;102022.09;;;16.86;73.89
69535;BME280;56754;51.568;5.048;2022-10-31T01:34:12;102015.09;;;16.85;73.85
69535;BME280;56754;51.568;5.048;2022-10-31T01:36:38;102014.31;;;16.85;73.76
69535;BME280;56754;51.568;5.048;2022-10-31T01:39:06;102015.09;;;16.85;73.67
69535;BME280;56754;51.568;5.048;2022-10-31T01:41:34;102022.41;;;16.85;73.65
69535;BME280;56754;51.568;5.048;2022-10-31T01:46:54;102018.13;;;16.83;73.86
69535;BME280;56754;51.568;5.048;2022-10-31T01:49:24;102016.88;;;16.81;73.67
69535;BME280;56754;51.568;5.048;2022-10-31T01:52:01;102013.38;;;16.80;73.88
69535;BME280;56754;51.568;5.048;2022-10-31T01:54:31;102015.28;;;16.80;73.99
69535;BME280;56754;51.568;5.048;2022-10-31T01:56:59;102012.56;;;16.80;73.93
69535;BME280;56754;51.568;5.048;2022-10-31T01:59:27;102014.47;;;16.79;73.61
69535;BME280;56754;51.568;5.048;2022-10-31T02:01:54;102006.25;;;16.76;73.57
69535;BME280;56754;51.568;5.048;2022-10-31T02:04:20;102006.25;;;16.76;73.88
69535;BME280;56754;51.568;5.048;2022-10-31T02:06:48;102000.84;;;16.76;73.74
69535;BME280;56754;51.568;5.048;2022-10-31T02:09:16;101989.22;;;16.75;73.97
69535;BME280;56754;51.568;5.048;2022-10-31T02:11:42;101990.34;;;16.74;73.95
69535;BME280;56754;51.568;5.048;2022-10-31T02:14:09;101998.44;;;16.74;73.80
69535;BME280;56754;51.568;5.048;2022-10-31T02:16:35;101997.19;;;16.72;73.74
69535;BME280;56754;51.568;5.048;2022-10-31T02:19:00;101994.47;;;16.72;73.86
69535;BME280;56754;51.568;5.048;2022-10-31T02:22:45;102000.97;;;16.71;74.00
69535;BME280;56754;51.568;5.048;2022-10-31T02:24:44;102003.22;;;16.69;74.03
69535;BME280;56754;51.568;5.048;2022-10-31T02:32:52;102001.16;;;16.66;74.17
69535;BME280;56754;51.568;5.048;2022-10-31T02:41:04;102003.69;;;16.62;74.19
69535;BME280;56754;51.568;5.048;2022-10-31T02:43:48;101993.22;;;16.60;74.16
69535;BME280;56754;51.568;5.048;2022-10-31T02:46:27;101992.75;;;16.58;74.16
69535;BME280;56754;51.568;5.048;2022-10-31T02:48:57;101994.66;;;16.58;74.06
69535;BME280;56754;51.568;5.048;2022-10-31T02:51:24;101985.31;;;16.55;74.20
69535;BME280;56754;51.568;5.048;2022-10-31T02:53:50;101981.03;;;16.54;74.12
69535;BME280;56754;51.568;5.048;2022-10-31T02:56:17;101991.81;;;16.54;74.20
69535;BME280;56754;51.568;5.048;2022-10-31T02:58:54;101996.75;;;16.52;73.83
69535;BME280;56754;51.568;5.048;2022-10-31T03:07:03;101994.38;;;16.51;74.23
69535;BME280;56754;51.568;5.048;2022-10-31T03:13:08;101997.38;;;16.49;74.21
69535;BME280;56754;51.568;5.048;2022-10-31T03:15:34;101993.09;;;16.48;74.34
69535;BME280;56754;51.568;5.048;2022-10-31T03:18:07;101992.31;;;16.48;74.32
69535;BME280;56754;51.568;5.048;2022-10-31T03:20:39;101988.00;;;16.47;74.17
69535;BME280;56754;51.568;5.048;2022-10-31T03:23:09;101998.34;;;16.45;74.40
69535;BME280;56754;51.568;5.048;2022-10-31T03:25:37;101992.97;;;16.45;74.37
69535;BME280;56754;51.568;5.048;2022-10-31T03:28:04;101986.28;;;16.42;74.43
69535;BME280;56754;51.568;5.048;2022-10-31T03:30:33;101991.69;;;16.42;74.44
69535;BME280;56754;51.568;5.048;2022-10-31T03:33:03;101996.31;;;16.42;74.62
69535;BME280;56754;51.568;5.048;2022-10-31T03:35:30;102000.09;;;16.41;74.31
69535;BME280;56754;51.568;5.048;2022-10-31T03:37:59;101997.72;;;16.39;74.08
69535;BME280;56754;51.568;5.048;2022-10-31T03:40:27;102001.53;;;16.38;74.64
69535;BME280;56754;51.568;5.048;2022-10-31T03:42:59;101999.16;;;16.36;74.39
69535;BME280;56754;51.568;5.048;2022-10-31T03:45:28;102001.06;;;16.36;74.48
69535;BME280;56754;51.568;5.048;2022-10-31T03:47:56;102002.16;;;16.35;74.31
69535;BME280;56754;51.568;5.048;2022-10-31T03:50:25;101998.69;;;16.34;74.44
69535;BME280;56754;51.568;5.048;2022-10-31T03:55:56;101993.63;;;16.33;74.35
69535;BME280;56754;51.568;5.048;2022-10-31T03:58:22;102001.22;;;16.31;74.06
69535;BME280;56754;51.568;5.048;2022-10-31T04:00:52;102001.53;;;16.29;74.24
69535;BME280;56754;51.568;5.048;2022-10-31T04:03:29;101984.88;;;16.27;74.39
69535;BME280;56754;51.568;5.048;2022-10-31T04:05:59;101989.50;;;16.27;74.14
69535;BME280;56754;51.568;5.048;2022-10-31T04:08:30;101991.72;;;16.25;74.31
69535;BME280;56754;51.568;5.048;2022-10-31T04:10:57;101999.00;;;16.24;74.21
69535;BME280;56754;51.568;5.048;2022-10-31T04:13:27;101990.44;;;16.22;74.31
69535;BME280;56754;51.568;5.048;2022-10-31T04:15:54;101992.34;;;16.22;74.24
69535;BME280;56754;51.568;5.048;2022-10-31T04:18:22;101985.34;;;16.21;74.12
69535;BME280;56754;51.568;5.048;2022-10-31T04:20:48;101999.97;;;16.20;74.23
69535;BME280;56754;51.568;5.048;2022-10-31T04:23:22;101998.38;;;16.19;74.15
69535;BME280;56754;51.568;5.048;2022-10-31T04:25:48;101996.78;;;16.18;74.06
69535;BME280;56754;51.568;5.048;2022-10-31T04:28:14;101997.91;;;16.17;74.24
69535;BME280;56754;51.568;5.048;2022-10-31T04:30:39;102004.88;;;16.18;74.00
69535;BME280;56754;51.568;5.048;2022-10-31T04:33:04;101999.03;;;16.15;74.10
69535;BME280;56754;51.568;5.048;2022-10-31T04:35:30;101997.41;;;16.14;74.00
69535;BME280;56754;51.568;5.048;2022-10-31T04:37:55;101993.94;;;16.14;74.16
69535;BME280;56754;51.568;5.048;2022-10-31T04:40:20;101997.75;;;16.13;73.63
69535;BME280;56754;51.568;5.048;2022-10-31T04:42:45;101993.47;;;16.12;74.14
69535;BME280;56754;51.568;5.048;2022-10-31T04:45:11;101990.78;;;16.12;73.95
69535;BME280;56754;51.568;5.048;2022-10-31T04:47:36;101996.47;;;16.10;74.38
69535;BME280;56754;51.568;5.048;2022-10-31T04:50:02;101988.69;;;16.09;74.04
69535;BME280;56754;51.568;5.048;2022-10-31T04:52:27;101990.59;;;16.08;74.04
69535;BME280;56754;51.568;5.048;2022-10-31T04:54:52;101989.50;;;16.09;73.98
69535;BME280;56754;51.568;5.048;2022-10-31T04:57:18;101989.50;;;16.09;74.09
69535;BME280;56754;51.568;5.048;2022-10-31T04:59:43;101985.69;;;16.10;73.98
69535;BME280;56754;51.568;5.048;2022-10-31T05:02:08;101985.69;;;16.10;74.15
69535;BME280;56754;51.568;5.048;2022-10-31T05:04:34;101984.91;;;16.10;74.17
69535;BME280;56754;51.568;5.048;2022-10-31T05:06:59;101977.13;;;16.08;74.08
69535;BME280;56754;51.568;5.048;2022-10-31T05:09:24;101971.72;;;16.08;74.12
69535;BME280;56754;51.568;5.048;2022-10-31T05:11:49;101972.84;;;16.07;74.14
69535;BME280;56754;51.568;5.048;2022-10-31T05:14:15;101970.94;;;16.08;74.35
69535;BME280;56754;51.568;5.048;2022-10-31T05:16:40;101968.22;;;16.08;74.20
69535;BME280;56754;51.568;5.048;2022-10-31T05:19:05;101967.13;;;16.09;74.17
69535;BME280;56754;51.568;5.048;2022-10-31T05:21:30;101970.94;;;16.08;74.32
69535;BME280;56754;51.568;5.048;2022-10-31T05:23:56;101964.75;;;16.07;74.00
69535;BME280;56754;51.568;5.048;2022-10-31T05:26:21;101962.84;;;16.08;74.08
69535;BME280;56754;51.568;5.048;2022-10-31T05:28:46;101956.66;;;16.07;74.24
69535;BME280;56754;51.568;5.048;2022-10-31T05:31:12;101953.97;;;16.07;74.38
69535;BME280;56754;51.568;5.048;2022-10-31T05:33:37;101963.97;;;16.07;74.31
69535;BME280;56754;51.568;5.048;2022-10-31T05:36:03;101960.47;;;16.06;74.23
69535;BME280;56754;51.568;5.048;2022-10-31T05:38:28;101965.06;;;16.06;74.43
69535;BME280;56754;51.568;5.048;2022-10-31T05:40:56;101967.75;;;16.06;74.41
69535;BME280;56754;51.568;5.048;2022-10-31T05:43:21;101974.25;;;16.05;74.61
69535;BME280;56754;51.568;5.048;2022-10-31T05:45:47;101966.97;;;16.05;74.40
69535;BME280;56754;51.568;5.048;2022-10-31T05:48:12;101968.88;;;16.05;74.40
69535;BME280;56754;51.568;5.048;2022-10-31T05:50:37;101962.69;;;16.04;74.52
69535;BME280;56754;51.568;5.048;2022-10-31T05:53:04;101964.59;;;16.04;74.58
69535;BME280;56754;51.568;5.048;2022-10-31T05:55:30;101964.91;;;16.02;74.53
69535;BME280;56754;51.568;5.048;2022-10-31T05:57:56;101950.31;;;16.03;74.49
69535;BME280;56754;51.568;5.048;2022-10-31T06:00:22;101953.81;;;16.04;74.50
69535;BME280;56754;51.568;5.048;2022-10-31T06:02:48;101953.03;;;16.03;74.46
69535;BME280;56754;51.568;5.048;2022-10-31T06:05:13;101949.50;;;16.03;74.42
69535;BME280;56754;51.568;5.048;2022-10-31T06:07:39;101949.22;;;16.04;74.10
69535;BME280;56754;51.568;5.048;2022-10-31T06:10:06;101944.94;;;16.03;74.30
69535;BME280;56754;51.568;5.048;2022-10-31T06:12:31;101948.41;;;16.04;74.38
69535;BME280;56754;51.568;5.048;2022-10-31T06:14:57;101953.03;;;16.03;74.35
69535;BME280;56754;51.568;5.048;2022-10-31T06:17:22;101946.03;;;16.02;74.45
69535;BME280;56754;51.568;5.048;2022-10-31T06:19:47;101949.84;;;16.01;74.31
69535;BME280;56754;51.568;5.048;2022-10-31T06:22:13;101944.44;;;16.01;74.38
69535;BME280;56754;51.568;5.048;2022-10-31T06:24:38;101947.94;;;16.02;74.22
69535;BME280;56754;51.568;5.048;2022-10-31T06:27:04;101944.44;;;16.01;74.53
69535;BME280;56754;51.568;5.048;2022-10-31T06:29:29;101955.25;;;16.01;74.68
69535;BME280;56754;51.568;5.048;2022-10-31T06:31:54;101954.44;;;16.01;74.54
69535;BME280;56754;51.568;5.048;2022-10-31T06:34:20;101952.53;;;16.01;74.38
69535;BME280;56754;51.568;5.048;2022-10-31T06:36:46;101946.38;;;16.01;74.49
69535;BME280;56754;51.568;5.048;2022-10-31T06:39:12;101951.75;;;16.01;74.67
69535;BME280;56754;51.568;5.048;2022-10-31T06:41:37;101951.75;;;16.01;74.48
69535;BME280;56754;51.568;5.048;2022-10-31T06:44:02;101947.16;;;16.01;74.67
69535;BME280;56754;51.568;5.048;2022-10-31T06:46:28;101946.38;;;16.01;74.87
69535;BME280;56754;51.568;5.048;2022-10-31T06:48:53;101937.94;;;16.02;74.40
69535;BME280;56754;51.568;5.048;2022-10-31T06:51:18;101947.16;;;16.01;74.43
69535;BME280;56754;51.568;5.048;2022-10-31T06:53:43;101953.97;;;16.07;73.70
69535;BME280;56754;51.568;5.048;2022-10-31T06:56:09;101953.81;;;16.12;73.62
69535;BME280;56754;51.568;5.048;2022-10-31T06:58:34;101956.97;;;16.14;73.59
69535;BME280;56754;51.568;5.048;2022-10-31T07:01:00;101963.31;;;16.19;73.31
69535;BME280;56754;51.568;5.048;2022-10-31T07:03:26;101960.63;;;16.19;73.20
69535;BME280;56754;51.568;5.048;2022-10-31T07:05:51;101967.59;;;16.20;73.10
69535;BME280;56754;51.568;5.048;2022-10-31T07:08:16;101961.06;;;16.21;73.22
69535;BME280;56754;51.568;5.048;2022-10-31T07:10:42;101953.78;;;16.21;72.94
69535;BME280;56754;51.568;5.048;2022-10-31T07:13:12;101952.97;;;16.21;72.99
69535;BME280;56754;51.568;5.048;2022-10-31T07:15:40;101954.59;;;16.22;72.68
69535;BME280;56754;51.568;5.048;2022-10-31T07:18:07;101954.59;;;16.22;72.79
69535;BME280;56754;51.568;5.048;2022-10-31T07:20:33;101953.47;;;16.23;72.63
69535;BME280;56754;51.568;5.048;2022-10-31T07:22:58;101956.94;;;16.23;72.74
69535;BME280;56754;51.568;5.048;2022-10-31T07:25:24;101957.72;;;16.24;72.68
69535;BME280;56754;51.568;5.048;2022-10-31T07:27:50;101956.16;;;16.23;72.70
69535;BME280;56754;51.568;5.048;2022-10-31T07:30:16;101966.66;;;16.24;72.59
69535;BME280;56754;51.568;5.048;2022-10-31T07:32:43;101961.69;;;16.26;72.46
69535;BME280;56754;51.568;5.048;2022-10-31T07:35:11;101959.00;;;16.26;72.57
69535;BME280;56754;51.568;5.048;2022-10-31T07:37:37;101968.38;;;16.29;72.35
69535;BME280;56754;51.568;5.048;2022-10-31T07:40:04;101965.66;;;16.29;72.31
69535;BME280;56754;51.568;5.048;2022-10-31T07:42:37;101961.88;;;16.30;72.39
69535;BME280;56754;51.568;5.048;2022-10-31T07:45:04;101965.03;;;16.32;71.87
69535;BME280;56754;51.568;5.048;2022-10-31T07:47:40;101965.81;;;16.32;71.85
69535;BME280;56754;51.568;5.048;2022-10-31T07:50:07;101966.63;;;16.33;71.68
69535;BME280;56754;51.568;5.048;2022-10-31T07:52:33;101967.09;;;16.35;71.62
69535;BME280;56754;51.568;5.048;2022-10-31T07:54:58;101965.16;;;16.35;71.71
69535;BME280;56754;51.568;5.048;2022-10-31T07:57:24;101971.84;;;16.38;71.89
69535;BME280;56754;51.568;5.048;2022-10-31T07:59:49;101966.13;;;16.40;71.42
69535;BME280;56754;51.568;5.048;2022-10-31T08:02:14;101963.09;;;16.41;71.43
69535;BME280;56754;51.568;5.048;2022-10-31T08:04:39;101967.06;;;16.44;71.72
69535;BME280;56754;51.568;5.048;2022-10-31T08:07:05;101969.47;;;16.45;71.69
69535;BME280;56754;51.568;5.048;2022-10-31T08:09:30;101967.22;;;16.47;71.51
69535;BME280;56754;51.568;5.048;2022-10-31T08:11:55;101969.91;;;16.47;71.23
69535;BME280;56754;51.568;5.048;2022-10-31T08:14:21;101969.59;;;16.49;71.18
69535;BME280;56754;51.568;5.048;2022-10-31T08:16:46;101968.19;;;16.51;71.50
69535;BME280;56754;51.568;5.048;2022-10-31T08:19:11;101968.97;;;16.52;71.36
69535;BME280;56754;51.568;5.048;2022-10-31T08:21:38;101967.53;;;16.54;71.19
69535;BME280;56754;51.568;5.048;2022-10-31T08:24:03;101966.41;;;16.55;71.14
69535;BME280;56754;51.568;5.048;2022-10-31T08:26:28;101964.19;;;16.57;71.11
69535;BME280;56754;51.568;5.048;2022-10-31T08:28:54;101953.06;;;16.59;71.73
69535;BME280;56754;51.568;5.048;2022-10-31T08:31:19;101951.97;;;16.60;72.14
69535;BME280;56754;51.568;5.048;2022-10-31T08:33:44;101944.97;;;16.59;72.35
69535;BME280;56754;51.568;5.048;2022-10-31T08:36:09;101941.47;;;16.58;71.83
69535;BME280;56754;51.568;5.048;2022-10-31T08:38:35;101934.97;;;16.59;71.15
69535;BME280;56754;51.568;5.048;2022-10-31T08:41:00;101927.31;;;16.61;70.83
69535;BME280;56754;51.568;5.048;2022-10-31T08:43:25;101930.97;;;16.66;70.84
69535;BME280;56754;51.568;5.048;2022-10-31T08:45:50;101927.63;;;16.69;70.60
69535;BME280;56754;51.568;5.048;2022-10-31T08:48:16;101937.00;;;16.71;70.73
69535;BME280;56754;51.568;5.048;2022-10-31T08:50:43;101950.94;;;16.73;70.46
69535;BME280;56754;51.568;5.048;2022-10-31T08:53:12;101954.44;;;16.74;70.31
69535;BME280;56754;51.568;5.048;2022-10-31T08:55:40;101947.94;;;16.75;70.11
69535;BME280;56754;51.568;5.048;2022-10-31T08:58:11;101951.94;;;16.77;69.92
69535;BME280;56754;51.568;5.048;2022-10-31T09:00:37;101948.91;;;16.79;70.04
69535;BME280;56754;51.568;5.048;2022-10-31T09:03:09;101950.47;;;16.80;70.01
69535;BME280;56754;51.568;5.048;2022-10-31T09:05:35;101942.84;;;16.82;70.05
69535;BME280;56754;51.568;5.048;2022-10-31T09:08:02;101943.31;;;16.84;70.28
69535;BME280;56754;51.568;5.048;2022-10-31T09:10:28;101938.72;;;16.85;70.59
69535;BME280;56754;51.568;5.048;2022-10-31T09:12:58;101933.31;;;16.85;70.59
69535;BME280;56754;51.568;5.048;2022-10-31T09:15:25;101927.13;;;16.84;70.51
69535;BME280;56754;51.568;5.048;2022-10-31T09:17:50;101920.16;;;16.83;70.58
69535;BME280;56754;51.568;5.048;2022-10-31T09:20:15;101923.63;;;16.83;70.47
69535;BME280;56754;51.568;5.048;2022-10-31T09:22:41;101919.03;;;16.84;70.49
69535;BME280;56754;51.568;5.048;2022-10-31T09:25:07;101909.00;;;16.85;70.47
69535;BME280;56754;51.568;5.048;2022-10-31T09:27:32;101905.19;;;16.86;70.89
69535;BME280;56754;51.568;5.048;2022-10-31T09:29:57;101894.84;;;16.88;71.26
69535;BME280;56754;51.568;5.048;2022-10-31T09:32:22;101899.13;;;16.89;71.33
69535;BME280;56754;51.568;5.048;2022-10-31T09:34:48;101891.84;;;16.89;70.63
69535;BME280;56754;51.568;5.048;2022-10-31T09:37:13;101890.25;;;16.88;70.92
69535;BME280;56754;51.568;5.048;2022-10-31T09:39:38;101887.22;;;16.90;70.65
69535;BME280;56754;51.568;5.048;2022-10-31T09:52:19;101871.94;;;16.94;70.24
69535;BME280;56754;51.568;5.048;2022-10-31T09:54:53;101859.22;;;16.94;70.26
69535;BME280;56754;51.568;5.048;2022-10-31T09:57:25;101851.94;;;16.95;70.44
69535;BME280;56754;51.568;5.048;2022-10-31T09:59:51;101842.72;;;16.96;70.46
69535;BME280;56754;51.568;5.048;2022-10-31T10:07:33;101825.38;;;16.97;70.55
69535;BME280;56754;51.568;5.048;2022-10-31T10:10:15;101840.50;;;16.98;70.56
69535;BME280;56754;51.568;5.048;2022-10-31T10:16:02;101835.88;;;16.98;70.48
69535;BME280;56754;51.568;5.048;2022-10-31T10:18:32;101831.25;;;16.99;70.51
69535;BME280;56754;51.568;5.048;2022-10-31T10:26:43;101839.00;;;17.00;70.66
69535;BME280;56754;51.568;5.048;2022-10-31T10:29:21;101829.03;;;17.01;70.42
69535;BME280;56754;51.568;5.048;2022-10-31T10:31:51;101838.69;;;17.02;70.42
69535;BME280;56754;51.568;5.048;2022-10-31T10:34:30;101843.31;;;17.01;70.54
69535;BME280;56754;51.568;5.048;2022-10-31T10:37:03;101854.56;;;17.03;70.64
69535;BME280;56754;51.568;5.048;2022-10-31T10:41:58;101846.94;;;17.05;70.68
69535;BME280;56754;51.568;5.048;2022-10-31T10:44:24;101834.22;;;17.06;70.43
69535;BME280;56754;51.568;5.048;2022-10-31T10:55:47;101817.34;;;17.09;70.61
69535;BME280;56754;51.568;5.048;2022-10-31T10:58:16;101807.34;;;17.10;70.69
69535;BME280;56754;51.568;5.048;2022-10-31T11:00:43;101798.44;;;17.09;70.78
69535;BME280;56754;51.568;5.048;2022-10-31T11:03:09;101797.00;;;17.12;70.53
69535;BME280;56754;51.568;5.048;2022-10-31T11:08:02;101771.59;;;17.13;70.79
69535;BME280;56754;51.568;5.048;2022-10-31T11:10:28;101765.38;;;17.12;70.78
69535;BME280;56754;51.568;5.048;2022-10-31T11:13:02;101774.28;;;17.13;70.65
69535;BME280;56754;51.568;5.048;2022-10-31T11:15:32;101773.94;;;17.14;70.90
69535;BME280;56754;51.568;5.048;2022-10-31T11:17:59;101759.31;;;17.15;70.69
69535;BME280;56754;51.568;5.048;2022-10-31T11:20:35;101748.19;;;17.17;70.83
69535;BME280;56754;51.568;5.048;2022-10-31T11:23:04;101735.47;;;17.17;70.83
69535;BME280;56754;51.568;5.048;2022-10-31T11:25:29;101743.25;;;17.19;70.74
69535;BME280;56754;51.568;5.048;2022-10-31T11:28:08;101745.59;;;17.20;70.82
69535;BME280;56754;51.568;5.048;2022-10-31T11:33:25;101733.66;;;17.21;70.75
69535;BME280;56754;51.568;5.048;2022-10-31T11:35:53;101718.25;;;17.22;70.82
69535;BME280;56754;51.568;5.048;2022-10-31T11:38:24;101717.13;;;17.23;70.65
69535;BME280;56754;51.568;5.048;2022-10-31T11:41:14;101692.50;;;17.24;70.90
69535;BME280;56754;51.568;5.048;2022-10-31T11:43:48;101691.38;;;17.25;70.62
69535;BME280;56754;51.568;5.048;2022-10-31T11:46:20;101701.03;;;17.26;70.90
69535;BME280;56754;51.568;5.048;2022-10-31T11:48:51;101689.91;;;17.28;70.90
69535;BME280;56754;51.568;5.048;2022-10-31T11:51:29;101680.69;;;17.29;70.79
69535;BME280;56754;51.568;5.048;2022-10-31T11:53:57;101671.44;;;17.30;70.75
69535;BME280;56754;51.568;5.048;2022-10-31T11:56:23;101664.94;;;17.31;70.78
69535;BME280;56754;51.568;5.048;2022-10-31T11:59:02;101663.00;;;17.32;70.78
69535;BME280;56754;51.568;5.048;2022-10-31T12:01:29;101659.97;;;17.33;70.96
69535;BME280;56754;51.568;5.048;2022-10-31T12:06:32;101672.84;;;17.36;70.70
69535;BME280;56754;51.568;5.048;2022-10-31T12:08:59;101647.38;;;17.37;70.76
69535;BME280;56754;51.568;5.048;2022-10-31T12:14:32;101630.03;;;17.38;70.60
69535;BME280;56754;51.568;5.048;2022-10-31T12:25:23;101608.19;;;17.43;70.76
69535;BME280;56754;51.568;5.048;2022-10-31T12:28:24;101605.97;;;17.45;70.63
69535;BME280;56754;51.568;5.048;2022-10-31T12:39:23;101579.72;;;17.46;71.38
69535;BME280;56754;51.568;5.048;2022-10-31T12:42:30;101559.19;;;17.45;71.67
69535;BME280;56754;51.568;5.048;2022-10-31T12:48:15;101549.22;;;17.45;72.28
69535;BME280;56754;51.568;5.048;2022-10-31T12:53:46;101524.22;;;17.48;72.40
69535;BME280;56754;51.568;5.048;2022-10-31T12:59:08;101522.75;;;17.51;72.23
69535;BME280;56754;51.568;5.048;2022-10-31T13:01:45;101513.50;;;17.52;72.21
69535;BME280;56754;51.568;5.048;2022-10-31T13:06:59;101506.63;;;17.55;72.00
69535;BME280;56754;51.568;5.048;2022-10-31T13:09:32;101497.38;;;17.56;71.94
69535;BME280;56754;51.568;5.048;2022-10-31T13:12:04;101483.88;;;17.56;71.98
69535;BME280;56754;51.568;5.048;2022-10-31T13:14:37;101483.53;;;17.57;71.81
69535;BME280;56754;51.568;5.048;2022-10-31T13:17:05;101468.09;;;17.58;71.52
69535;BME280;56754;51.568;5.048;2022-10-31T13:19:38;101463.13;;;17.60;71.45
69535;BME280;56754;51.568;5.048;2022-10-31T13:22:26;101448.84;;;17.59;71.73
69535;BME280;56754;51.568;5.048;2022-10-31T13:25:03;101449.28;;;17.61;71.56
69535;BME280;56754;51.568;5.048;2022-10-31T13:30:18;101439.72;;;17.64;71.18
69535;BME280;56754;51.568;5.048;2022-10-31T13:35:23;101432.84;;;17.66;71.10
69535;BME280;56754;51.568;5.048;2022-10-31T13:38:37;101435.97;;;17.68;70.95
69535;BME280;56754;51.568;5.048;2022-10-31T13:46:40;101426.06;;;17.72;70.89
69535;BME280;56754;51.568;5.048;2022-10-31T13:57:01;101407.47;;;17.71;70.83
69535;BME280;56754;51.568;5.048;2022-10-31T13:59:29;101402.06;;;17.71;70.99
69535;BME280;56754;51.568;5.048;2022-10-31T14:02:01;101393.94;;;17.71;71.25
69535;BME280;56754;51.568;5.048;2022-10-31T14:04:46;101386.19;;;17.69;71.32
69535;BME280;56754;51.568;5.048;2022-10-31T14:07:17;101381.13;;;17.68;71.34
69535;BME280;56754;51.568;5.048;2022-10-31T14:09:59;101386.53;;;17.68;71.18
69535;BME280;56754;51.568;5.048;2022-10-31T14:15:03;101376.94;;;17.70;71.30
69535;BME280;56754;51.568;5.048;2022-10-31T14:17:36;101368.06;;;17.70;71.20
69535;BME280;56754;51.568;5.048;2022-10-31T14:20:42;101354.53;;;17.70;71.32
69535;BME280;56754;51.568;5.048;2022-10-31T14:28:42;101337.94;;;17.71;70.91
69535;BME280;56754;51.568;5.048;2022-10-31T14:33:55;101344.25;;;17.76;71.04
69535;BME280;56754;51.568;5.048;2022-10-31T14:36:42;101342.81;;;17.78;71.06
69535;BME280;56754;51.568;5.048;2022-10-31T14:39:18;101332.88;;;17.82;70.68
69535;BME280;56754;51.568;5.048;2022-10-31T14:42:13;101333.06;;;17.89;70.54
69535;BME280;56754;51.568;5.048;2022-10-31T14:50:42;101311.00;;;18.03;70.28
69535;BME280;56754;51.568;5.048;2022-10-31T14:53:19;101312.69;;;18.08;70.15
69535;BME280;56754;51.568;5.048;2022-10-31T14:55:48;101317.41;;;18.11;70.06
69535;BME280;56754;51.568;5.048;2022-10-31T14:58:19;101315.91;;;18.13;69.98
69535;BME280;56754;51.568;5.048;2022-10-31T15:00:45;101306.28;;;18.16;69.78
69535;BME280;56754;51.568;5.048;2022-10-31T15:03:18;101305.63;;;18.19;69.79
69535;BME280;56754;51.568;5.048;2022-10-31T15:05:52;101288.25;;;18.20;69.67
69535;BME280;56754;51.568;5.048;2022-10-31T15:08:49;101287.09;;;18.21;69.86
69535;BME280;56754;51.568;5.048;2022-10-31T15:11:17;101285.97;;;18.22;69.51
69535;BME280;56754;51.568;5.048;2022-10-31T15:13:48;101272.47;;;18.22;69.50
69535;BME280;56754;51.568;5.048;2022-10-31T15:16:18;101268.16;;;18.21;69.34